Time;durP1;ratioP1;P1;durP2;ratioP2;P2;SDS_P1;SDS_P2;PMS_P1;PMS_P2;Temp;Humidity;BMP_temperature;BMP_pressure;BME280_temperature;BME280_humidity;BME280_pressure;Samples;Min_cycle;Max_cycle;Signal;HPM_P1;HPM_P2
2021/11/07 00:00:02;;;;;;;20.60;13.20;;;;;;;5.64;70.70;100348.29;229828;1191;141109;-76
2021/11/07 00:05:31;;;;;;;20.00;13.10;;;;;;;5.59;70.36;100340.73;228963;1191;139413;-74
2021/11/07 00:10:46;;;;;;;19.00;12.20;;;;;;;5.53;70.61;100335.46;230531;1192;142849;-75
2021/11/07 00:15:54;;;;;;;29.50;14.20;;;;;;;5.48;70.75;100330.94;229481;1192;139533;-76
2021/11/07 00:21:07;;;;;;;20.70;12.20;;;;;;;5.42;70.66;100325.38;230791;1192;140554;-77
2021/11/07 00:36:47;;;;;;;24.40;13.00;;;;;;;5.31;70.44;100307.08;229765;1192;139865;-84
2021/11/07 00:48:24;;;;;;;20.30;13.00;;;;;;;5.16;70.62;100292.23;228691;1195;230219;-80
2021/11/07 00:54:51;;;;;;;24.00;13.20;;;;;;;5.07;70.82;100281.94;230165;1192;140293;-81
2021/11/07 00:59:47;;;;;;;23.30;14.90;;;;;;;5.05;70.90;100270.48;228850;1192;139955;-83
2021/11/07 01:04:56;;;;;;;20.70;13.90;;;;;;;4.97;70.79;100258.88;228717;1193;140435;-72
2021/11/07 01:10:09;;;;;;;21.50;13.20;;;;;;;4.91;70.80;100252.19;229777;1191;141945;-81
2021/11/07 01:15:13;;;;;;;17.50;10.70;;;;;;;4.84;70.97;100245.70;229412;1192;140862;-81
2021/11/07 01:20:18;;;;;;;25.40;10.80;;;;;;;4.78;70.90;100239.56;229787;1192;140120;-81
2021/11/07 01:25:22;;;;;;;22.90;11.60;;;;;;;4.78;70.77;100235.24;229954;1192;229185;-80
2021/11/07 01:30:52;;;;;;;21.10;12.20;;;;;;;4.75;71.10;100228.11;229265;1192;140355;-83
2021/11/07 01:46:43;;;;;;;20.00;11.00;;;;;;;4.59;71.05;100196.59;229389;1192;152599;-74
2021/11/07 01:51:50;;;;;;;18.40;11.20;;;;;;;4.55;70.99;100177.55;229948;1191;139959;-71
2021/11/07 01:56:59;;;;;;;24.00;13.20;;;;;;;4.56;71.06;100164.11;229196;1192;141450;-69
2021/11/07 02:02:14;;;;;;;22.90;11.90;;;;;;;4.54;71.22;100159.41;230083;1192;139393;-69
2021/11/07 02:07:21;;;;;;;16.90;10.00;;;;;;;4.50;71.22;100152.73;229710;1192;139666;-69
2021/11/07 02:12:24;;;;;;;18.60;10.20;;;;;;;4.44;70.94;100146.45;229705;1191;139452;-74
2021/11/07 02:17:28;;;;;;;16.90;11.00;;;;;;;4.40;71.23;100141.40;229523;1193;140221;-74
2021/11/07 02:22:31;;;;;;;18.60;13.50;;;;;;;4.37;71.32;100134.30;230474;1192;141917;-73
2021/11/07 02:27:35;;;;;;;22.40;12.10;;;;;;;4.33;71.53;100127.06;230572;1193;151193;-73
2021/11/07 02:32:49;;;;;;;18.60;13.20;;;;;;;4.31;71.30;100120.95;231070;1192;141082;-76
2021/11/07 02:37:54;;;;;;;21.10;13.60;;;;;;;4.28;71.39;100116.86;230941;1192;139743;-74
2021/11/07 02:42:59;;;;;;;25.50;14.20;;;;;;;4.26;71.26;100102.51;230151;1192;140108;-70
2021/11/07 02:48:03;;;;;;;25.10;14.80;;;;;;;4.24;71.36;100101.59;229919;1177;139816;-68
2021/11/07 02:53:06;;;;;;;16.80;11.20;;;;;;;4.19;71.68;100092.59;230015;1192;140127;-70
2021/11/07 02:58:12;;;;;;;26.20;12.70;;;;;;;4.16;71.56;100076.73;229356;1192;138763;-70
2021/11/07 03:03:19;;;;;;;19.90;11.70;;;;;;;4.10;71.57;100067.48;228891;1192;141089;-69
2021/11/07 03:08:22;;;;;;;17.40;11.40;;;;;;;4.05;71.77;100056.45;230336;1192;141022;-71
2021/11/07 03:13:26;;;;;;;19.60;12.50;;;;;;;4.05;71.75;100052.39;229548;1192;140308;-70
2021/11/07 03:18:31;;;;;;;28.20;11.40;;;;;;;4.06;71.83;100040.52;229573;1192;139316;-73
2021/11/07 03:23:50;;;;;;;20.60;10.90;;;;;;;4.04;72.03;100031.11;228861;1192;139167;-72
2021/11/07 03:29:16;;;;;;;16.60;10.00;;;;;;;4.03;72.04;100025.38;229384;1192;143150;-70
2021/11/07 03:34:28;;;;;;;16.10;10.50;;;;;;;3.99;72.04;100025.99;230021;1192;139888;-72
2021/11/07 03:39:38;;;;;;;21.60;10.40;;;;;;;3.98;71.92;100016.81;230122;1192;141057;-72
2021/11/07 03:44:44;;;;;;;22.40;11.90;;;;;;;4.00;72.14;100011.83;230096;1192;140514;-78
2021/11/07 03:49:53;;;;;;;20.60;11.40;;;;;;;4.02;72.31;99994.16;229978;1192;139871;-74
2021/11/07 03:54:58;;;;;;;23.50;13.60;;;;;;;3.96;72.03;99993.14;229862;1192;140879;-72
2021/11/07 04:00:04;;;;;;;14.20;11.40;;;;;;;3.87;72.00;99980.57;230077;1192;138900;-76
2021/11/07 04:05:30;;;;;;;;;;;;;;;;;;;;;
2021/11/07 04:10:41;;;;;;;20.20;12.90;;;;;;;3.79;72.02;99963.08;230411;1192;140634;-77
2021/11/07 04:15:44;;;;;;;23.90;14.30;;;;;;;3.77;72.33;99956.60;230979;1184;140583;-75
2021/11/07 04:20:48;;;;;;;23.90;14.60;;;;;;;3.75;72.29;99944.73;230107;1192;141182;-73
2021/11/07 04:25:51;;;;;;;17.40;10.00;;;;;;;3.67;72.25;99946.95;230914;1192;140947;-74
2021/11/07 04:30:58;;;;;;;22.10;12.30;;;;;;;3.59;72.30;99941.59;231200;1192;138963;-74
2021/11/07 04:36:19;;;;;;;26.30;15.90;;;;;;;3.59;72.29;99932.92;230929;1192;140406;-75
2021/11/07 04:41:23;;;;;;;18.90;13.20;;;;;;;3.59;72.36;99918.43;230896;1192;140742;-71
2021/11/07 04:46:27;;;;;;;22.60;12.30;;;;;;;3.56;72.66;99906.15;229733;1192;139623;-69
2021/11/07 04:51:34;;;;;;;20.00;13.40;;;;;;;3.53;72.64;99902.63;229646;1191;140716;-70
2021/11/07 04:56:38;;;;;;;23.50;12.60;;;;;;;3.48;72.81;99891.13;230269;1191;138854;-71
2021/11/07 05:01:42;;;;;;;19.80;11.50;;;;;;;3.50;72.71;99882.46;230172;1191;141598;-72
2021/11/07 05:06:49;;;;;;;19.30;13.30;;;;;;;3.51;72.82;99883.90;230072;1192;140705;-70
2021/11/07 05:12:03;;;;;;;19.60;12.00;;;;;;;3.50;73.00;99876.39;229032;1192;138623;-68
2021/11/07 05:17:06;;;;;;;17.40;11.10;;;;;;;3.49;73.15;99863.44;229982;1192;139441;-68
2021/11/07 05:22:24;;;;;;;20.40;11.80;;;;;;;3.49;73.17;99850.10;229212;1192;140170;-68
2021/11/07 05:27:30;;;;;;;21.30;12.70;;;;;;;3.56;73.16;99849.05;228763;1192;139593;-70
2021/11/07 05:32:54;;;;;;;19.60;12.30;;;;;;;3.61;73.26;99852.89;228570;1192;139600;-68
2021/11/07 05:37:56;;;;;;;18.30;10.60;;;;;;;3.66;73.48;99847.58;229814;1192;140731;-67
2021/11/07 05:43:09;;;;;;;19.80;12.40;;;;;;;3.69;73.47;99840.86;229486;1192;139049;-67
2021/11/07 05:48:12;;;;;;;18.50;10.90;;;;;;;3.74;73.32;99839.70;230055;1192;140266;-68
2021/11/07 05:53:15;;;;;;;21.90;12.80;;;;;;;3.85;73.26;99845.25;228402;1192;139718;-72
2021/11/07 05:58:19;;;;;;;16.80;10.30;;;;;;;3.91;73.24;99835.34;229580;1191;139907;-70
2021/11/07 06:03:25;;;;;;;21.10;13.10;;;;;;;3.92;73.28;99827.88;229183;1192;139958;-69
2021/11/07 06:08:28;;;;;;;15.10;10.90;;;;;;;3.92;73.22;99822.64;230626;1192;138900;-70
2021/11/07 06:13:30;;;;;;;23.10;12.00;;;;;;;3.96;73.27;99812.90;230580;1191;150803;-70
2021/11/07 06:18:33;;;;;;;18.20;12.70;;;;;;;4.08;73.11;99797.89;230537;1191;141423;-69
2021/11/07 06:23:39;;;;;;;20.60;12.80;;;;;;;4.21;73.07;99788.05;230211;1191;140329;-75
2021/11/07 06:28:43;;;;;;;16.90;10.40;;;;;;;4.33;73.21;99780.29;230397;1191;139187;-78
2021/11/07 06:34:00;;;;;;;13.50;10.30;;;;;;;4.42;73.11;99780.02;229844;1192;140377;-77
2021/11/07 06:39:04;;;;;;;16.60;10.40;;;;;;;4.53;72.97;99776.57;230040;1191;142699;-77
2021/11/07 06:44:27;;;;;;;14.40;9.80;;;;;;;4.64;72.76;99770.52;230154;1191;141080;-77
2021/11/07 06:49:31;;;;;;;16.90;10.40;;;;;;;4.70;72.56;99759.95;230713;1192;229038;-76
2021/11/07 06:54:34;;;;;;;17.40;10.40;;;;;;;4.72;72.52;99750.73;229560;1191;139764;-74
2021/11/07 06:59:40;;;;;;;14.00;9.30;;;;;;;4.74;72.50;99746.16;229306;1191;139220;-78
2021/11/07 07:04:53;;;;;;;14.20;10.90;;;;;;;4.80;72.31;99742.45;230134;1191;140088;-77
2021/11/07 07:09:59;;;;;;;16.00;10.40;;;;;;;4.85;72.41;99735.48;228803;1192;140318;-80
2021/11/07 07:15:25;;;;;;;16.30;9.50;;;;;;;4.92;72.44;99726.44;229194;1191;140182;-73
2021/11/07 07:37:42;;;;;;;11.20;7.40;;;;;;;5.58;71.88;99698.09;228625;1195;140950;-78
2021/11/07 07:42:46;;;;;;;19.50;8.40;;;;;;;5.68;71.82;99686.99;228916;1192;139691;-71
2021/11/07 07:47:48;;;;;;;11.10;7.30;;;;;;;5.81;71.30;99702.28;229713;1191;140198;-72
2021/11/07 07:52:52;;;;;;;12.50;8.10;;;;;;;5.86;71.59;99695.59;230010;1192;138887;-79
2021/11/07 07:57:57;;;;;;;18.80;11.20;;;;;;;5.91;71.15;99690.34;229394;1191;141262;-77
2021/11/07 08:03:05;;;;;;;30.80;20.80;;;;;;;5.93;71.16;99677.84;229557;1192;139550;-72
2021/11/07 08:08:15;;;;;;;12.50;11.10;;;;;;;5.97;70.73;99670.95;229391;1192;140562;-74
2021/11/07 08:13:19;;;;;;;19.50;13.90;;;;;;;6.02;70.65;99644.01;228909;1192;138910;-79
2021/11/07 08:18:23;;;;;;;11.20;8.40;;;;;;;6.18;70.74;99632.88;229009;1192;138865;-80
2021/11/07 08:23:27;;;;;;;32.00;11.90;;;;;;;6.36;70.89;99618.04;228689;1192;139049;-78
2021/11/07 08:28:35;;;;;;;11.40;8.20;;;;;;;6.56;70.27;99603.55;229859;1192;140353;-77
2021/11/07 08:33:39;;;;;;;10.20;7.60;;;;;;;6.73;70.43;99604.36;228626;1192;139312;-80
2021/11/07 08:38:47;;;;;;;8.70;6.40;;;;;;;6.90;70.06;99596.91;230406;1192;140688;-80
2021/11/07 09:10:55;;;;;;;9.40;7.30;;;;;;;7.53;68.77;99556.80;229198;1192;140243;-77
2021/11/07 09:16:09;;;;;;;11.90;7.30;;;;;;;7.69;68.36;99552.70;229837;1191;141921;-75
2021/11/07 09:21:32;;;;;;;10.30;6.10;;;;;;;7.75;68.11;99550.39;228940;1191;163484;-78
2021/11/07 09:26:41;;;;;;;11.10;6.70;;;;;;;7.85;68.23;99540.59;229192;1191;139975;-73
2021/11/07 09:32:41;;;;;;;9.90;6.70;;;;;;;7.94;67.90;99532.41;229967;1191;139636;-76
2021/11/07 09:37:27;;;;;;;7.10;4.00;;;;;;;8.11;67.73;99524.66;228907;1192;139842;-75
2021/11/07 09:42:51;;;;;;;17.10;6.90;;;;;;;8.31;67.66;99507.46;229836;1191;138945;-76
2021/11/07 09:48:32;;;;;;;10.40;7.00;;;;;;;8.47;67.07;99508.45;229911;1191;138982;-77
2021/11/07 09:53:25;;;;;;;7.80;5.50;;;;;;;8.73;67.04;99495.38;229300;1192;140460;-76
2021/11/07 09:58:28;;;;;;;8.40;6.70;;;;;;;8.91;66.51;99483.91;229186;1191;141371;-74
2021/11/07 10:03:33;;;;;;;8.30;5.20;;;;;;;9.05;66.16;99470.80;229766;1191;141592;-73
2021/11/07 10:08:43;;;;;;;6.60;4.70;;;;;;;9.20;65.91;99462.71;229119;1192;140528;-73
2021/11/07 10:14:13;;;;;;;6.90;5.50;;;;;;;9.30;65.46;99448.53;229086;1191;139953;-70
2021/11/07 10:19:26;;;;;;;8.60;6.20;;;;;;;9.37;65.46;99438.73;230351;1191;139266;-78
2021/11/07 10:24:37;;;;;;;10.80;6.30;;;;;;;9.49;64.95;99430.20;231042;1191;141170;-75
2021/11/07 10:29:50;;;;;;;7.40;4.70;;;;;;;9.75;64.84;99430.30;230784;1191;140325;-77
2021/11/07 10:36:08;;;;;;;8.80;5.70;;;;;;;9.83;64.45;99431.30;230839;1191;140341;-77
2021/11/07 10:53:31;;;;;;;5.50;4.80;;;;;;;9.53;63.63;99401.75;228817;1192;140480;-80
2021/11/07 10:59:08;;;;;;;8.40;5.80;;;;;;;9.47;63.59;99391.73;229944;1192;139256;-74
2021/11/07 11:04:12;;;;;;;8.30;6.00;;;;;;;9.42;63.34;99383.29;228955;1192;207744;-81
2021/11/07 11:09:19;;;;;;;10.90;5.40;;;;;;;9.40;63.57;99380.95;228445;1183;140441;-70
2021/11/07 11:15:03;;;;;;;;;;;;;;;9.34;63.34;99368.06;228678;1191;139226;-78
2021/11/07 11:20:51;;;;;;;;;;;;;;;;;;;;;
2021/11/07 11:27:05;;;;;;;6.90;6.20;;;;;;;9.17;63.59;99366.88;229323;1192;140470;-82
2021/11/07 11:37:14;;;;;;;7.10;5.30;;;;;;;9.04;63.53;99359.59;228419;1192;138646;-79
2021/11/07 11:42:46;;;;;;;;;;;;;;;;;;;;;
2021/11/07 11:53:28;;;;;;;8.30;5.40;;;;;;;8.96;63.52;99351.44;228899;1192;140885;-84
2021/11/07 11:59:20;;;;;;;5.70;4.70;;;;;;;8.90;63.47;99348.05;229047;1192;139476;-75
2021/11/07 12:04:37;;;;;;;8.30;4.60;;;;;;;8.81;63.30;99350.64;228860;1192;138974;-71
2021/11/07 12:10:12;;;;;;;4.70;4.30;;;;;;;8.73;63.62;99355.51;229513;1192;139302;-72
2021/11/07 12:21:48;;;;;;;6.20;4.40;;;;;;;8.58;64.09;99342.73;228877;1192;140116;-80
2021/11/07 12:26:50;;;;;;;5.40;4.70;;;;;;;8.52;64.51;99340.89;230188;1192;139358;-76
2021/11/07 12:32:41;;;;;;;;;;;;;;;;;;;;;
2021/11/07 12:44:03;;;;;;;71.10;30.60;;;;;;;8.33;65.68;99324.92;229711;1192;139891;-74
2021/11/07 12:49:37;;;;;;;18.60;9.20;;;;;;;8.28;66.13;99320.78;230804;1192;141054;-75
2021/11/07 12:54:48;;;;;;;8.40;4.70;;;;;;;8.25;66.66;99316.91;230909;1191;152363;-78
2021/11/07 12:59:53;;;;;;;7.90;4.10;;;;;;;8.23;66.68;99313.90;229562;1191;139830;-78
2021/11/07 13:05:28;;;;;;;6.80;5.20;;;;;;;8.25;66.99;99312.77;229830;1191;140267;-74
2021/11/07 13:22:12;;;;;;;;;;;;;;;;;;;;;
2021/11/07 13:27:29;;;;;;;5.50;4.50;;;;;;;8.08;68.46;99287.20;229168;1192;140721;-76
2021/11/07 13:32:41;;;;;;;7.30;6.30;;;;;;;8.11;68.52;99290.19;229808;1191;139820;-71
2021/11/07 13:37:52;;;;;;;5.10;4.20;;;;;;;8.08;68.47;99287.78;229540;1191;139521;-83
2021/11/07 13:43:28;;;;;;;8.90;5.70;;;;;;;8.06;68.57;99282.95;229791;1184;139167;-71
2021/11/07 13:48:33;;;;;;;8.50;6.50;;;;;;;8.01;68.58;99281.12;229187;1192;141527;-70
2021/11/07 13:53:42;;;;;;;6.60;4.70;;;;;;;7.98;68.39;99282.02;229644;1191;139495;-72
2021/11/07 13:58:46;;;;;;;11.50;5.60;;;;;;;8.01;68.45;99282.71;230084;1191;139307;-78
2021/11/07 14:03:57;;;;;;;6.90;5.20;;;;;;;8.03;69.01;99287.13;229540;1191;140398;-74
2021/11/07 14:09:09;;;;;;;8.10;6.10;;;;;;;8.04;69.08;99282.74;228375;1191;140616;-74
2021/11/07 14:14:15;;;;;;;7.20;4.90;;;;;;;8.01;69.15;99279.43;230310;1191;139871;-72
2021/11/07 14:19:30;;;;;;;8.60;6.40;;;;;;;7.96;69.04;99276.71;228389;1192;139564;-75
2021/11/07 14:24:36;;;;;;;8.60;6.10;;;;;;;7.96;69.33;99273.62;229623;1192;140816;-75
2021/11/07 14:29:42;;;;;;;9.50;6.00;;;;;;;7.97;69.31;99271.91;230369;1191;139011;-76
2021/11/07 14:35:32;;;;;;;10.40;5.80;;;;;;;7.93;69.26;99263.05;230368;1191;140480;-76
2021/11/07 14:40:43;;;;;;;12.70;8.40;;;;;;;7.90;69.54;99259.50;231182;1191;140174;-78
2021/11/07 14:57:58;;;;;;;;;;;;;;;;;;;;;
2021/11/07 15:02:59;;;;;;;5.80;5.20;;;;;;;7.86;69.79;99259.61;229048;1192;138606;-76
2021/11/07 15:09:03;;;;;;;7.90;6.00;;;;;;;7.86;69.82;99257.36;230529;1191;139448;-81
2021/11/07 15:20:43;;;;;;;24.20;8.30;;;;;;;7.88;69.55;99255.89;229586;1192;138877;-80
2021/11/07 15:25:53;;;;;;;10.60;5.80;;;;;;;7.85;69.81;99255.86;229726;1192;140753;-69
2021/11/07 15:31:01;;;;;;;8.50;6.80;;;;;;;7.81;70.03;99259.42;228609;1192;139582;-70
2021/11/07 15:36:07;;;;;;;10.70;7.30;;;;;;;7.79;70.00;99264.31;229481;1192;139672;-72
2021/11/07 15:41:23;;;;;;;10.40;6.90;;;;;;;7.75;70.00;99260.48;229623;1191;140197;-75
2021/11/07 15:46:28;;;;;;;10.60;6.50;;;;;;;7.74;70.21;99252.88;228955;1192;140259;-79
2021/11/07 15:51:42;;;;;;;8.80;6.80;;;;;;;7.73;70.15;99248.94;229924;1191;141119;-77
2021/11/07 15:57:05;;;;;;;;;;;;;;;;;;;;;
2021/11/07 16:02:18;;;;;;;11.20;6.60;;;;;;;7.80;70.09;99249.32;230466;1191;141403;-76
2021/11/07 16:07:41;;;;;;;8.00;5.40;;;;;;;7.83;70.23;99257.81;229708;1192;139247;-70
2021/11/07 16:12:55;;;;;;;7.50;5.20;;;;;;;7.82;70.22;99259.14;229616;1191;141331;-73
2021/11/07 16:18:04;;;;;;;12.30;7.40;;;;;;;7.82;69.88;99264.48;229909;1192;139088;-80
2021/11/07 16:23:16;;;;;;;9.00;7.80;;;;;;;7.84;70.23;99266.66;229236;1191;140205;-73
2021/11/07 16:28:24;;;;;;;10.50;8.30;;;;;;;7.86;70.10;99267.03;229335;1192;139734;-76
2021/11/07 16:33:31;;;;;;;8.40;7.30;;;;;;;7.87;70.25;99264.82;229307;1192;141692;-73
2021/11/07 16:38:46;;;;;;;10.40;6.40;;;;;;;7.85;70.35;99262.39;230550;1191;139642;-73
2021/11/07 16:44:01;;;;;;;11.50;6.70;;;;;;;7.82;70.10;99266.20;230136;1191;139050;-78
2021/11/07 16:49:08;;;;;;;9.70;7.90;;;;;;;7.83;70.15;99262.38;229799;1192;141681;-73
2021/11/07 16:54:19;;;;;;;6.90;5.90;;;;;;;7.80;70.55;99265.98;231022;1191;141313;-77
2021/11/07 17:04:49;;;;;;;12.30;7.90;;;;;;;7.79;70.91;99271.59;230519;1191;140281;-76
2021/11/07 17:09:59;;;;;;;8.20;6.00;;;;;;;7.79;71.14;99276.52;229414;1192;139847;-71
2021/11/07 17:15:10;;;;;;;12.80;6.50;;;;;;;7.73;71.43;99276.64;229803;1192;139980;-72
2021/11/07 17:25:55;;;;;;;7.20;5.00;;;;;;;7.56;72.16;99282.67;229298;1192;141031;-74
2021/11/07 17:31:22;;;;;;;12.80;8.30;;;;;;;7.51;72.53;99290.17;230309;1191;139533;-69
2021/11/07 17:36:37;;;;;;;10.00;7.70;;;;;;;7.47;72.86;99282.64;229610;1191;140375;-74
2021/11/07 17:58:06;;;;;;;11.60;10.20;;;;;;;7.42;73.50;99286.23;229879;1192;139636;-72
2021/11/07 18:03:38;;;;;;;12.40;8.00;;;;;;;7.36;73.75;99287.30;228587;1191;140043;-75
2021/11/07 18:08:50;;;;;;;10.20;7.40;;;;;;;7.35;73.87;99283.39;229610;1192;140190;-73
2021/11/07 18:13:57;;;;;;;9.60;6.90;;;;;;;7.37;73.82;99285.92;229116;1184;140601;-74
2021/11/07 18:19:03;;;;;;;12.10;8.70;;;;;;;7.34;74.07;99283.30;230430;1184;140295;-72
2021/11/07 18:24:22;;;;;;;9.10;6.20;;;;;;;7.30;74.13;99281.41;230522;1191;140372;-75
2021/11/07 18:29:26;;;;;;;12.70;7.40;;;;;;;7.27;73.89;99280.10;228808;1192;140850;-73
2021/11/07 18:34:30;;;;;;;14.10;8.70;;;;;;;7.27;74.31;99280.63;229304;1192;143054;-76
2021/11/07 18:39:36;;;;;;;7.40;5.10;;;;;;;7.25;73.99;99284.36;229279;1192;141030;-77
2021/11/07 18:44:48;;;;;;;15.10;7.90;;;;;;;7.21;74.18;99298.23;231086;1192;139650;-72
2021/11/07 18:49:51;;;;;;;11.50;7.90;;;;;;;7.23;74.16;99288.10;230621;1191;140033;-70
2021/11/07 18:55:10;;;;;;;10.40;7.20;;;;;;;7.24;74.53;99290.36;231012;1191;140171;-72
2021/11/07 19:00:27;;;;;;;10.30;7.60;;;;;;;7.22;74.13;99291.09;230782;1192;139159;-76
2021/11/07 19:05:31;;;;;;;11.10;6.80;;;;;;;7.24;74.48;99285.91;229312;1191;140532;-79
2021/11/07 19:10:58;;;;;;;;;;;;;;;;;;;;;
2021/11/07 19:16:03;;;;;;;11.60;7.00;;;;;;;7.20;74.32;99294.33;229855;1191;139721;-74
2021/11/07 19:21:13;;;;;;;10.90;6.40;;;;;;;7.17;74.26;99299.27;229679;1192;141069;-85
2021/11/07 19:26:42;;;;;;;12.00;6.90;;;;;;;7.13;74.43;99301.34;230581;1191;139272;-76
2021/11/07 19:31:54;;;;;;;12.80;7.30;;;;;;;7.04;73.83;99301.41;228502;1193;149392;-80
2021/11/07 19:36:57;;;;;;;10.30;6.70;;;;;;;6.97;74.58;99307.37;229239;1192;140029;-81
2021/11/07 19:42:16;;;;;;;14.80;9.40;;;;;;;6.96;74.69;99309.83;228939;1192;139765;-75
2021/11/07 19:47:27;;;;;;;10.80;7.30;;;;;;;6.96;74.21;99314.92;228764;1192;139804;-73
2021/11/07 19:52:32;;;;;;;7.80;6.60;;;;;;;6.96;74.31;99324.02;228563;1192;140830;-78
2021/11/07 19:57:37;;;;;;;8.70;6.70;;;;;;;6.94;74.65;99335.34;229050;1193;141531;-71
2021/11/07 20:03:06;;;;;;;8.70;6.70;;;;;;;6.95;74.59;99336.46;228629;1193;139477;-72
2021/11/07 20:09:22;;;;;;;11.40;7.50;;;;;;;6.96;74.31;99343.92;229756;1191;139416;-74
2021/11/07 20:13:58;;;;;;;12.50;7.70;;;;;;;6.93;74.54;99354.11;229065;1192;140648;-78
2021/11/07 20:19:04;;;;;;;8.30;6.60;;;;;;;6.91;74.64;99351.71;230087;1192;139377;-73
2021/11/07 20:24:13;;;;;;;11.70;7.50;;;;;;;6.86;74.61;99359.55;229740;1192;139303;-71
2021/11/07 20:29:23;;;;;;;13.30;7.60;;;;;;;6.82;74.72;99370.09;229719;1192;139951;-76
2021/11/07 20:34:36;;;;;;;11.40;7.40;;;;;;;6.86;74.85;99369.38;230686;1192;140162;-74
2021/11/07 20:39:43;;;;;;;10.30;6.70;;;;;;;6.90;74.95;99373.04;229729;1191;140024;-70
2021/11/07 20:44:55;;;;;;;12.30;6.10;;;;;;;6.94;75.01;99375.86;231191;1192;139516;-75
2021/11/07 20:50:15;;;;;;;10.00;8.80;;;;;;;7.00;74.71;99378.81;230996;1192;140412;-78
2021/11/07 21:00:41;;;;;;;11.80;7.60;;;;;;;7.04;74.77;99386.82;230907;1192;139365;-74
2021/11/07 21:05:50;;;;;;;11.30;8.20;;;;;;;7.08;74.83;99392.85;230582;1191;139849;-79
2021/11/07 21:10:58;;;;;;;8.70;7.80;;;;;;;7.08;74.88;99403.25;231210;1192;140171;-77
2021/11/07 21:26:35;;;;;;;8.00;6.30;;;;;;;7.12;74.58;99403.34;229431;1192;140915;-75
2021/11/07 21:31:50;;;;;;;;;;;;;;;;;;;;;
2021/11/07 21:42:29;;;;;;;10.00;6.50;;;;;;;6.90;74.43;99408.54;229300;1192;140100;-71
2021/11/07 21:47:51;;;;;;;23.80;18.20;;;;;;;6.88;74.85;99401.64;230233;1191;140586;-72
2021/11/07 21:52:58;;;;;;;29.30;24.80;;;;;;;6.86;75.17;99401.16;229294;1192;139656;-72
2021/11/07 21:58:04;;;;;;;39.10;23.10;;;;;;;6.80;74.99;99406.64;229540;1191;141997;-73
2021/11/07 22:03:10;;;;;;;15.80;9.80;;;;;;;6.80;75.26;99415.60;229309;1192;140524;-78
2021/11/07 22:08:13;;;;;;;14.60;12.10;;;;;;;6.84;75.09;99414.59;227997;1192;140082;-70
2021/11/07 22:13:16;;;;;;;15.00;9.70;;;;;;;6.84;75.02;99418.20;228437;1192;141030;-73
2021/11/07 22:18:25;;;;;;;11.30;7.30;;;;;;;6.81;75.14;99416.94;228926;1192;140057;-70
2021/11/07 22:28:43;;;;;;;9.80;7.60;;;;;;;6.76;75.09;99424.84;230021;1192;141633;-85
2021/11/07 22:33:46;;;;;;;7.90;6.20;;;;;;;6.77;75.32;99430.17;230450;1191;141144;-71
2021/11/07 22:38:51;;;;;;;9.40;6.70;;;;;;;6.76;75.24;99432.21;230270;1192;139079;-69
2021/11/07 22:43:59;;;;;;;7.10;6.30;;;;;;;6.77;75.11;99440.61;229505;1191;139360;-74
2021/11/07 22:49:05;;;;;;;10.00;6.60;;;;;;;6.81;75.43;99435.90;229070;1191;139941;-75
2021/11/07 22:56:26;;;;;;;8.60;5.80;;;;;;;6.84;75.49;99443.04;230344;1191;139288;-77
2021/11/07 22:59:58;;;;;;;7.10;5.90;;;;;;;6.86;75.51;99446.13;230905;1191;140346;-76
2021/11/07 23:05:24;;;;;;;8.60;6.30;;;;;;;6.87;75.04;99444.40;231176;1191;139605;-78
2021/11/07 23:10:29;;;;;;;8.10;6.10;;;;;;;6.89;74.73;99442.38;229997;1192;142126;-75
2021/11/07 23:15:32;;;;;;;7.50;6.70;;;;;;;6.88;75.13;99448.23;230510;1191;139575;-76
2021/11/07 23:20:38;;;;;;;7.80;6.50;;;;;;;6.88;75.12;99444.88;230753;1191;139641;-75
2021/11/07 23:25:40;;;;;;;9.50;5.60;;;;;;;6.89;75.39;99443.45;229903;1191;140148;-75
2021/11/07 23:30:45;;;;;;;8.00;5.90;;;;;;;6.93;74.91;99441.38;229646;1191;140199;-76
2021/11/07 23:35:51;;;;;;;11.50;6.70;;;;;;;6.92;75.39;99443.91;229648;1192;140022;-76
2021/11/07 23:40:57;;;;;;;6.90;6.20;;;;;;;6.89;75.44;99450.05;229429;1191;139714;-76
2021/11/07 23:46:05;;;;;;;8.20;6.00;;;;;;;6.90;75.26;99447.92;229240;1192;142613;-82
2021/11/07 23:51:39;;;;;;;8.90;5.90;;;;;;;6.90;75.27;99451.92;229657;1191;139235;-81
2021/11/07 23:56:50;;;;;;;9.50;5.50;;;;;;;6.87;75.20;99454.59;229144;1192;139642;-77
